TAF Text Data
IDs:
Format:
Raw Decoded Include METAR

Data at: 0651 UTC 08 May 2021

Region: TOP
KATL 080540Z 0806/0912 26004KT P6SM SKC
  FM081400 28008KT P6SM SCT100 BKN250
  FM090100 19004KT P6SM SCT250


KBOS 080532Z 0806/0912 02007KT P6SM FEW170 OVC220
  FM081500 06009KT P6SM OVC080
  FM082000 10007KT P6SM OVC090
  FM082300 18006KT P6SM OVC050
  FM090200 24007KT P6SM OVC060
  FM091000 28008KT P6SM FEW150


KBWI 080531Z 0806/0912 25004KT P6SM SCT250
  FM081400 29009KT P6SM OVC030
  FM081600 29012G20KT P6SM BKN030
  FM082200 30013G20KT P6SM SCT070
  FM090500 30006KT P6SM FEW250


KCLE 080528Z 0806/0912 29008KT 6SM -SHRA BR SCT025 OVC035
  FM080800 31010KT P6SM SCT015 BKN025
  FM081100 31010KT P6SM BKN015
  FM081900 31008KT P6SM SCT050


KCLT 080526Z 0806/0912 00000KT P6SM SKC
  FM081300 29006KT P6SM FEW250
  FM081600 28009G19KT P6SM FEW060 FEW250
  FM090100 30003KT P6SM FEW100


KCVG 080541Z 0806/0912 35008KT P6SM SKC
  FM081700 31006KT P6SM SCT250
  FM090000 VRB04KT P6SM VCSH OVC070
  FM090400 11006KT 5SM -SHRA BR OVC060
  FM091000 12013KT 5SM -SHRA BR OVC050


KDCA 080531Z 0806/0912 27005KT P6SM SKC
  FM080900 25004KT P6SM BKN200
  FM081200 28006KT P6SM OVC045
  FM081500 31011G18KT P6SM BKN045
  FM082000 31016G24KT P6SM SCT060
  FM090400 30004KT P6SM BKN200


KDEN 080538Z 0806/0912 18017KT P6SM FEW140
  FM080800 21012KT P6SM FEW140 SCT200
  FM081400 33010KT P6SM SCT140 SCT200
  FM081700 01015G23KT P6SM FEW080 SCT110 BKN220
  FM082000 03015G23KT P6SM SCT050 BKN100
  TEMPO 0821/0824 -TSRA BKN050CB
  FM090300 05012G20KT P6SM SCT080 BKN120
  FM090900 09010KT P6SM SCT060 BKN100


KDFW 080538Z 0806/0912 18012KT P6SM BKN250
  FM081400 19015KT P6SM OVC250
  TEMPO 0814/0818 19017G27KT OVC025
  FM081800 18022G32KT P6SM SCT250
  FM090900 19018G28KT P6SM BKN015


KDTW 080520Z 0806/0912 32011KT P6SM SCT015 OVC025
  FM081200 33007KT P6SM SCT035
  FM082200 25005KT P6SM BKN070 BKN250
  FM090400 VRB02KT P6SM OVC090


KEWR 080520Z 0806/0912 10004KT P6SM BKN110 BKN250
  FM081400 13007KT P6SM VCSH OVC045
  FM081800 15008KT P6SM OVC040
  PROB30 0818/0822 15008KT 5SM -SHRA BKN030
  FM082200 29004KT P6SM BKN045
  PROB30 0822/0824 15008KT 5SM -SHRA BKN030
  FM090100 28007KT P6SM SCT040 BKN250


KFLL 080520Z 0806/0912 VRB05KT P6SM SCT025
  FM081400 07012KT P6SM FEW030
  FM090400 10011KT P6SM SCT030


KIAD 080531Z 0806/0912 28003KT P6SM SKC
  FM080800 25004KT P6SM SCT130
  FM081100 27004KT P6SM OVC045
  FM081400 31013G20KT P6SM BKN080
  FM081800 30016G24KT P6SM SCT070
  FM090300 30006KT P6SM FEW250


KIAH 080520Z 0806/0912 17005KT P6SM FEW250
  FM080900 VRB03KT P6SM FEW020 FEW250
  FM081500 16014G24KT P6SM SCT030 SCT090
  FM081800 17018G26KT P6SM SCT035 SCT045
  FM090300 16014KT P6SM BKN025 BKN170
  FM090600 17012KT P6SM BKN025 BKN150


KJFK 080520Z 0806/0912 11008KT P6SM BKN130 BKN250
  FM080900 08006KT P6SM BKN060 BKN250
  FM081400 13007KT P6SM VCSH OVC045
  FM081800 15008KT P6SM OVC040
  PROB30 0818/0822 15008KT 5SM -SHRA BKN030
  FM082200 29004KT P6SM BKN045
  PROB30 0822/0824 15008KT 5SM -SHRA BKN030
  FM090100 28007KT P6SM SCT040 BKN250


KLAS 080520Z 0806/0912 23012KT P6SM SKC
  FM081000 25006KT P6SM SKC
  FM081500 34014KT P6SM SKC
  FM081900 01007KT P6SM SKC
  FM090400 VRB06KT P6SM SKC


KLAX 080541Z 0806/0912 VRB03KT P6SM OVC012
  FM081600 VRB03KT P6SM BKN022
  FM081900 26010KT P6SM SKC
  FM090300 26006KT P6SM OVC015
  FM090900 19006KT P6SM OVC015


KLGA 080520Z 0806/0912 09005KT P6SM BKN120 BKN250
  FM081400 13007KT P6SM VCSH OVC045
  FM081800 15008KT P6SM OVC040
  PROB30 0818/0822 15008KT 5SM -SHRA BKN030
  FM082200 29004KT P6SM BKN045
  PROB30 0822/0824 15008KT 5SM -SHRA BKN030
  FM090100 28007KT P6SM SCT040 BKN250


KMCO 080543Z 0806/0912 36005KT P6SM SKC
  FM081400 02007KT P6SM SKC
  FM082100 08010KT P6SM SKC
  FM090200 10004KT P6SM SKC


KMDW 080520Z 0806/0912 02006KT P6SM FEW060
  FM080800 35004KT P6SM FEW050
  FM081800 08010KT P6SM SCT050 BKN150
  FM090400 10008KT 6SM -RA SCT025 OVC050
  FM090900 07010G18KT 4SM -RA BR SCT010 OVC020


KMEM 080531Z 0806/0912 21005KT P6SM BKN100
  FM081400 20010KT P6SM BKN060 BKN100
  FM081800 19013G20KT P6SM FEW050 BKN150
  FM090100 17010KT P6SM BKN200


KMIA 080520Z 0806/0912 VRB05KT P6SM SCT025
  FM081400 07012KT P6SM FEW030
  FM090600 10011KT P6SM SCT050


KMSP 080520Z 0806/0912 05004KT P6SM FEW060
  FM080800 10003KT P6SM SKC
  FM081400 12008KT P6SM BKN120
  FM082200 12008KT P6SM OVC050


KORD 080520Z 0806/0912 02006KT P6SM FEW060
  FM080800 35004KT P6SM FEW050
  FM081800 08010KT P6SM SCT050 BKN150
  FM090400 10008KT 6SM -RA SCT025 OVC050
  FM090900 07010G18KT 5SM -RA BR OVC020


KPDX 080520Z 0806/0906 31009KT P6SM SCT060
  FM081100 30004KT P6SM BKN060 BKN200
  FM081800 17004KT P6SM VCSH SCT030 OVC045
  FM090100 28005KT P6SM OVC050


KPHL 080537Z 0806/0912 VRB04KT P6SM FEW025 OVC050
  FM081000 28005KT P6SM SCT050
  FM081600 29008KT P6SM VCSH BKN030
  FM082000 30011G19KT P6SM VCSH BKN035
  FM090800 28005KT P6SM FEW250


KPHX 080522Z 0806/0912 26007KT P6SM SKC
  FM080700 35004KT P6SM SKC
  FM080900 10005KT P6SM FEW250
  FM082000 25009G18KT P6SM SKC
  FM090200 29007KT P6SM SKC
  FM090800 08005KT P6SM SKC


KPIT 080531Z 0806/0912 27003KT P6SM VCSH OVC040
  FM080700 28005KT 6SM -SHRA BKN050
  FM080900 28009KT P6SM VCSH BKN015
  FM081500 30010G18KT P6SM BKN025
  FM081900 30012G19KT P6SM OVC035
  FM090000 32004KT P6SM BKN100


KSAN 080520Z 0806/0912 VRB04KT P6SM OVC019
  FM081700 19007KT P6SM SCT025
  FM081900 21010KT P6SM SCT025
  FM090200 21005KT P6SM SCT020
  FM090600 VRB04KT P6SM BKN018


KSEA 080539Z 0806/0912 18008KT P6SM -SHRA BKN035 BKN050
  FM080900 18008KT P6SM SCT025 BKN035 OVC050
  FM081300 18008KT P6SM BKN022 OVC035
  FM081900 18008KT P6SM SCT025 OVC035


KSFO 080539Z 0806/0912 27019G26KT P6SM SKC
  FM080900 28015KT P6SM SKC WS020/02035KT
  FM081200 29008KT P6SM SKC WS020/02035KT
  FM081500 32010G18KT P6SM SKC WS020/02030KT
  FM081800 33012G20KT P6SM SKC
  FM082000 30025G34KT P6SM SKC
  FM090500 29018G25KT P6SM SKC


KSLC 080545Z 0806/0912 14007KT P6SM BKN090
  FM080700 33010KT P6SM FEW090 BKN130
  FM081400 32009KT P6SM SKC
  FM081800 33013G18KT P6SM FEW110
  FM090200 35009KT P6SM SCT250
  FM090800 13005KT P6SM BKN200


KSTL 080520Z 0806/0912 VRB04KT P6SM BKN090
  FM081600 13010G17KT P6SM VCSH OVC045
  FM081900 12011G20KT P6SM VCSH OVC027
  FM082000 12011G21KT P6SM VCSH OVC013
  FM082300 12012G20KT P6SM OVC012


KTPA 080530Z 0806/0912 01004KT P6SM SKC
  FM081300 04007KT P6SM SKC
  FM081700 30009KT P6SM FEW250
  FM090100 05005KT P6SM SKC